sensor_id;sensor_type;location;lat;lon;timestamp;temperature;humidity
2463;DHT22;1243;54.298;10.172;2022-11-24T00:02:11;5.30;1.00
2463;DHT22;1243;54.298;10.172;2022-11-24T00:04:37;5.30;1.00
2463;DHT22;1243;54.298;10.172;2022-11-24T00:07:03;5.30;1.00
2463;DHT22;1243;54.298;10.172;2022-11-24T00:09:28;5.30;1.00
2463;DHT22;1243;54.298;10.172;2022-11-24T00:11:54;5.30;1.00
2463;DHT22;1243;54.298;10.172;2022-11-24T00:14:20;5.30;1.00
2463;DHT22;1243;54.298;10.172;2022-11-24T00:16:46;5.30;1.00
2463;DHT22;1243;54.298;10.172;2022-11-24T00:19:11;5.30;1.00
2463;DHT22;1243;54.298;10.172;2022-11-24T00:21:37;5.30;1.00
2463;DHT22;1243;54.298;10.172;2022-11-24T00:24:03;5.40;1.00
2463;DHT22;1243;54.298;10.172;2022-11-24T00:26:31;5.40;1.00
2463;DHT22;1243;54.298;10.172;2022-11-24T00:29:02;5.40;1.00
2463;DHT22;1243;54.298;10.172;2022-11-24T00:31:33;5.40;1.00
2463;DHT22;1243;54.298;10.172;2022-11-24T00:34:02;5.40;1.00
2463;DHT22;1243;54.298;10.172;2022-11-24T00:36:30;5.40;1.00
2463;DHT22;1243;54.298;10.172;2022-11-24T00:38:58;5.40;1.00
2463;DHT22;1243;54.298;10.172;2022-11-24T00:41:25;5.40;1.00
2463;DHT22;1243;54.298;10.172;2022-11-24T00:43:52;5.40;1.00
2463;DHT22;1243;54.298;10.172;2022-11-24T00:46:18;5.40;1.00
2463;DHT22;1243;54.298;10.172;2022-11-24T00:48:44;5.40;1.00
2463;DHT22;1243;54.298;10.172;2022-11-24T00:51:12;5.40;1.00
2463;DHT22;1243;54.298;10.172;2022-11-24T00:53:42;5.50;1.00
2463;DHT22;1243;54.298;10.172;2022-11-24T00:56:09;5.40;1.00
2463;DHT22;1243;54.298;10.172;2022-11-24T00:58:35;5.40;1.00
2463;DHT22;1243;54.298;10.172;2022-11-24T01:01:19;5.40;1.00
2463;DHT22;1243;54.298;10.172;2022-11-24T01:03:45;5.30;1.00
2463;DHT22;1243;54.298;10.172;2022-11-24T01:06:15;5.30;1.00
2463;DHT22;1243;54.298;10.172;2022-11-24T01:08:41;5.40;1.00
2463;DHT22;1243;54.298;10.172;2022-11-24T01:13:45;5.40;1.00
2463;DHT22;1243;54.298;10.172;2022-11-24T01:16:18;5.40;1.00
2463;DHT22;1243;54.298;10.172;2022-11-24T01:18:45;5.50;1.00
2463;DHT22;1243;54.298;10.172;2022-11-24T01:21:12;5.40;1.00
2463;DHT22;1243;54.298;10.172;2022-11-24T01:23:38;5.40;1.00
2463;DHT22;1243;54.298;10.172;2022-11-24T01:26:05;5.50;1.00
2463;DHT22;1243;54.298;10.172;2022-11-24T01:28:32;5.50;1.00
2463;DHT22;1243;54.298;10.172;2022-11-24T01:30:59;5.50;1.00
2463;DHT22;1243;54.298;10.172;2022-11-24T01:33:25;5.50;1.00
2463;DHT22;1243;54.298;10.172;2022-11-24T01:35:51;5.50;1.00
2463;DHT22;1243;54.298;10.172;2022-11-24T01:38:17;5.50;1.00
2463;DHT22;1243;54.298;10.172;2022-11-24T01:40:43;5.40;1.00
2463;DHT22;1243;54.298;10.172;2022-11-24T01:43:20;5.50;1.00
2463;DHT22;1243;54.298;10.172;2022-11-24T01:45:47;5.40;1.00
2463;DHT22;1243;54.298;10.172;2022-11-24T01:48:20;5.50;1.00
2463;DHT22;1243;54.298;10.172;2022-11-24T01:50:58;5.40;1.00
2463;DHT22;1243;54.298;10.172;2022-11-24T01:53:26;5.40;1.00
2463;DHT22;1243;54.298;10.172;2022-11-24T01:55:52;5.40;1.00
2463;DHT22;1243;54.298;10.172;2022-11-24T01:58:23;5.40;1.00
2463;DHT22;1243;54.298;10.172;2022-11-24T02:00:51;5.30;1.00
2463;DHT22;1243;54.298;10.172;2022-11-24T02:03:21;5.30;1.00
2463;DHT22;1243;54.298;10.172;2022-11-24T02:05:56;5.30;1.00
2463;DHT22;1243;54.298;10.172;2022-11-24T02:08:41;5.30;1.00
2463;DHT22;1243;54.298;10.172;2022-11-24T02:11:08;5.30;1.00
2463;DHT22;1243;54.298;10.172;2022-11-24T02:13:36;5.30;1.00
2463;DHT22;1243;54.298;10.172;2022-11-24T02:16:07;5.40;1.00
2463;DHT22;1243;54.298;10.172;2022-11-24T02:18:33;5.30;1.00
2463;DHT22;1243;54.298;10.172;2022-11-24T02:20:59;5.30;1.00
2463;DHT22;1243;54.298;10.172;2022-11-24T02:23:52;5.30;1.00
2463;DHT22;1243;54.298;10.172;2022-11-24T02:26:36;5.20;1.00
2463;DHT22;1243;54.298;10.172;2022-11-24T02:29:03;5.20;1.00
2463;DHT22;1243;54.298;10.172;2022-11-24T02:31:29;5.20;1.00
2463;DHT22;1243;54.298;10.172;2022-11-24T02:33:55;5.20;1.00
2463;DHT22;1243;54.298;10.172;2022-11-24T02:36:21;5.20;1.00
2463;DHT22;1243;54.298;10.172;2022-11-24T02:38:50;5.20;1.00
2463;DHT22;1243;54.298;10.172;2022-11-24T02:41:18;5.20;1.00
2463;DHT22;1243;54.298;10.172;2022-11-24T02:43:53;5.30;1.00
2463;DHT22;1243;54.298;10.172;2022-11-24T02:46:19;5.30;1.00
2463;DHT22;1243;54.298;10.172;2022-11-24T02:48:45;5.30;1.00
2463;DHT22;1243;54.298;10.172;2022-11-24T02:51:11;5.30;1.00
2463;DHT22;1243;54.298;10.172;2022-11-24T02:53:37;5.30;1.00
2463;DHT22;1243;54.298;10.172;2022-11-24T02:56:03;5.40;1.00
2463;DHT22;1243;54.298;10.172;2022-11-24T02:58:29;5.40;1.00
2463;DHT22;1243;54.298;10.172;2022-11-24T03:00:55;5.40;1.00
2463;DHT22;1243;54.298;10.172;2022-11-24T03:03:21;5.40;1.00
2463;DHT22;1243;54.298;10.172;2022-11-24T03:05:47;5.40;1.00
2463;DHT22;1243;54.298;10.172;2022-11-24T03:08:13;5.40;1.00
2463;DHT22;1243;54.298;10.172;2022-11-24T03:10:39;5.40;1.00
2463;DHT22;1243;54.298;10.172;2022-11-24T03:13:05;5.50;1.00
2463;DHT22;1243;54.298;10.172;2022-11-24T03:15:31;5.40;1.00
2463;DHT22;1243;54.298;10.172;2022-11-24T03:17:57;5.40;1.00
2463;DHT22;1243;54.298;10.172;2022-11-24T03:20:23;5.40;1.00
2463;DHT22;1243;54.298;10.172;2022-11-24T03:22:49;5.40;1.00
2463;DHT22;1243;54.298;10.172;2022-11-24T03:25:15;5.40;1.00
2463;DHT22;1243;54.298;10.172;2022-11-24T03:27:41;5.50;1.00
2463;DHT22;1243;54.298;10.172;2022-11-24T03:30:07;5.50;1.00
2463;DHT22;1243;54.298;10.172;2022-11-24T03:32:33;5.50;1.00
2463;DHT22;1243;54.298;10.172;2022-11-24T03:34:59;5.60;1.00
2463;DHT22;1243;54.298;10.172;2022-11-24T03:37:25;5.60;1.00
2463;DHT22;1243;54.298;10.172;2022-11-24T03:39:51;5.60;1.00
2463;DHT22;1243;54.298;10.172;2022-11-24T03:42:16;5.60;1.00
2463;DHT22;1243;54.298;10.172;2022-11-24T03:44:42;5.60;1.00
2463;DHT22;1243;54.298;10.172;2022-11-24T03:47:10;5.60;1.00
2463;DHT22;1243;54.298;10.172;2022-11-24T03:49:36;5.60;1.00
2463;DHT22;1243;54.298;10.172;2022-11-24T03:52:01;5.60;1.00
2463;DHT22;1243;54.298;10.172;2022-11-24T03:54:27;5.60;1.00
2463;DHT22;1243;54.298;10.172;2022-11-24T03:56:53;5.70;1.00
2463;DHT22;1243;54.298;10.172;2022-11-24T03:59:19;5.60;1.00
2463;DHT22;1243;54.298;10.172;2022-11-24T04:01:45;5.70;1.00
2463;DHT22;1243;54.298;10.172;2022-11-24T04:04:11;5.70;1.00
2463;DHT22;1243;54.298;10.172;2022-11-24T04:06:38;5.60;1.00
2463;DHT22;1243;54.298;10.172;2022-11-24T04:09:04;5.70;1.00
2463;DHT22;1243;54.298;10.172;2022-11-24T04:11:29;5.70;1.00
2463;DHT22;1243;54.298;10.172;2022-11-24T04:14:13;5.70;1.00
2463;DHT22;1243;54.298;10.172;2022-11-24T04:16:39;5.80;1.00
2463;DHT22;1243;54.298;10.172;2022-11-24T04:19:05;5.80;1.00
2463;DHT22;1243;54.298;10.172;2022-11-24T04:21:31;5.70;1.00
2463;DHT22;1243;54.298;10.172;2022-11-24T04:23:57;5.80;1.00
2463;DHT22;1243;54.298;10.172;2022-11-24T04:26:22;5.80;1.00
2463;DHT22;1243;54.298;10.172;2022-11-24T04:28:48;5.80;1.00
2463;DHT22;1243;54.298;10.172;2022-11-24T04:31:14;5.80;1.00
2463;DHT22;1243;54.298;10.172;2022-11-24T04:33:39;5.80;1.00
2463;DHT22;1243;54.298;10.172;2022-11-24T04:36:05;5.80;1.00
2463;DHT22;1243;54.298;10.172;2022-11-24T04:38:31;5.80;1.00
2463;DHT22;1243;54.298;10.172;2022-11-24T04:41:01;5.80;1.00
2463;DHT22;1243;54.298;10.172;2022-11-24T04:43:28;5.80;1.00
2463;DHT22;1243;54.298;10.172;2022-11-24T04:45:54;5.90;1.00
2463;DHT22;1243;54.298;10.172;2022-11-24T04:48:20;5.90;1.00
2463;DHT22;1243;54.298;10.172;2022-11-24T04:50:46;6.00;1.00
2463;DHT22;1243;54.298;10.172;2022-11-24T04:53:12;5.90;1.00
2463;DHT22;1243;54.298;10.172;2022-11-24T04:55:39;5.90;1.00
2463;DHT22;1243;54.298;10.172;2022-11-24T04:58:09;5.90;1.00
2463;DHT22;1243;54.298;10.172;2022-11-24T05:00:35;5.90;1.00
2463;DHT22;1243;54.298;10.172;2022-11-24T05:03:00;5.90;1.00
2463;DHT22;1243;54.298;10.172;2022-11-24T05:05:26;5.90;1.00
2463;DHT22;1243;54.298;10.172;2022-11-24T05:07:52;6.00;1.00
2463;DHT22;1243;54.298;10.172;2022-11-24T05:10:18;6.00;1.00
2463;DHT22;1243;54.298;10.172;2022-11-24T05:13:05;6.10;1.00
2463;DHT22;1243;54.298;10.172;2022-11-24T05:15:31;6.10;1.00
2463;DHT22;1243;54.298;10.172;2022-11-24T05:17:57;6.10;1.00
2463;DHT22;1243;54.298;10.172;2022-11-24T05:20:24;6.10;1.00
2463;DHT22;1243;54.298;10.172;2022-11-24T05:22:50;6.10;1.00
2463;DHT22;1243;54.298;10.172;2022-11-24T05:25:15;6.10;1.00
2463;DHT22;1243;54.298;10.172;2022-11-24T05:27:41;6.10;1.00
2463;DHT22;1243;54.298;10.172;2022-11-24T05:30:07;6.10;1.00
2463;DHT22;1243;54.298;10.172;2022-11-24T05:32:33;6.00;1.00
2463;DHT22;1243;54.298;10.172;2022-11-24T05:34:59;6.00;1.00
2463;DHT22;1243;54.298;10.172;2022-11-24T05:37:29;6.00;1.00
2463;DHT22;1243;54.298;10.172;2022-11-24T05:39:55;6.00;1.00
2463;DHT22;1243;54.298;10.172;2022-11-24T05:42:21;6.00;1.00
2463;DHT22;1243;54.298;10.172;2022-11-24T05:45:13;6.10;1.00
2463;DHT22;1243;54.298;10.172;2022-11-24T05:47:40;6.10;1.00
2463;DHT22;1243;54.298;10.172;2022-11-24T05:50:07;6.10;1.00
2463;DHT22;1243;54.298;10.172;2022-11-24T05:52:34;6.10;1.00
2463;DHT22;1243;54.298;10.172;2022-11-24T05:55:00;6.10;1.00
2463;DHT22;1243;54.298;10.172;2022-11-24T05:57:26;6.10;1.00
2463;DHT22;1243;54.298;10.172;2022-11-24T05:59:51;6.10;1.00
2463;DHT22;1243;54.298;10.172;2022-11-24T06:02:17;6.10;1.00
2463;DHT22;1243;54.298;10.172;2022-11-24T06:04:43;6.10;1.00
2463;DHT22;1243;54.298;10.172;2022-11-24T06:07:10;6.10;1.00
2463;DHT22;1243;54.298;10.172;2022-11-24T06:09:38;6.20;1.00
2463;DHT22;1243;54.298;10.172;2022-11-24T06:12:05;6.20;1.00
2463;DHT22;1243;54.298;10.172;2022-11-24T06:14:32;6.20;1.00
2463;DHT22;1243;54.298;10.172;2022-11-24T06:16:58;6.20;1.00
2463;DHT22;1243;54.298;10.172;2022-11-24T06:19:23;6.20;1.00
2463;DHT22;1243;54.298;10.172;2022-11-24T06:21:49;6.20;1.00
2463;DHT22;1243;54.298;10.172;2022-11-24T06:24:15;6.20;1.00
2463;DHT22;1243;54.298;10.172;2022-11-24T06:26:41;6.20;1.00
2463;DHT22;1243;54.298;10.172;2022-11-24T06:29:06;6.30;1.00
2463;DHT22;1243;54.298;10.172;2022-11-24T06:31:32;6.30;1.00
2463;DHT22;1243;54.298;10.172;2022-11-24T06:33:58;6.30;1.00
2463;DHT22;1243;54.298;10.172;2022-11-24T06:36:25;6.30;1.00
2463;DHT22;1243;54.298;10.172;2022-11-24T06:38:51;6.30;1.00
2463;DHT22;1243;54.298;10.172;2022-11-24T06:41:17;6.30;1.00
2463;DHT22;1243;54.298;10.172;2022-11-24T06:43:44;6.30;1.00
2463;DHT22;1243;54.298;10.172;2022-11-24T06:46:10;6.30;1.00
2463;DHT22;1243;54.298;10.172;2022-11-24T06:48:37;6.30;1.00
2463;DHT22;1243;54.298;10.172;2022-11-24T06:51:05;6.40;1.00
2463;DHT22;1243;54.298;10.172;2022-11-24T06:53:35;6.40;1.00
2463;DHT22;1243;54.298;10.172;2022-11-24T06:56:04;6.40;1.00
2463;DHT22;1243;54.298;10.172;2022-11-24T06:58:30;6.40;1.00
2463;DHT22;1243;54.298;10.172;2022-11-24T07:00:56;6.40;1.00
2463;DHT22;1243;54.298;10.172;2022-11-24T07:03:22;6.40;1.00
2463;DHT22;1243;54.298;10.172;2022-11-24T07:05:47;6.40;1.00
2463;DHT22;1243;54.298;10.172;2022-11-24T07:08:13;6.40;1.00
2463;DHT22;1243;54.298;10.172;2022-11-24T07:10:39;6.30;1.00
2463;DHT22;1243;54.298;10.172;2022-11-24T07:13:08;6.40;1.00
2463;DHT22;1243;54.298;10.172;2022-11-24T07:15:34;6.40;1.00
2463;DHT22;1243;54.298;10.172;2022-11-24T07:17:59;6.40;1.00
2463;DHT22;1243;54.298;10.172;2022-11-24T07:20:25;6.40;1.00
2463;DHT22;1243;54.298;10.172;2022-11-24T07:22:55;6.40;1.00
2463;DHT22;1243;54.298;10.172;2022-11-24T07:25:23;6.40;1.00
2463;DHT22;1243;54.298;10.172;2022-11-24T07:27:57;6.40;1.00
2463;DHT22;1243;54.298;10.172;2022-11-24T07:30:24;6.40;1.00
2463;DHT22;1243;54.298;10.172;2022-11-24T07:32:50;6.40;1.00
2463;DHT22;1243;54.298;10.172;2022-11-24T07:35:15;6.50;1.00
2463;DHT22;1243;54.298;10.172;2022-11-24T07:37:42;6.50;1.00
2463;DHT22;1243;54.298;10.172;2022-11-24T07:40:09;6.50;1.00
2463;DHT22;1243;54.298;10.172;2022-11-24T07:42:35;6.50;1.00
2463;DHT22;1243;54.298;10.172;2022-11-24T07:45:00;6.50;1.00
2463;DHT22;1243;54.298;10.172;2022-11-24T07:47:27;6.60;1.00
2463;DHT22;1243;54.298;10.172;2022-11-24T07:49:52;6.60;1.00
2463;DHT22;1243;54.298;10.172;2022-11-24T07:52:18;6.60;1.00
2463;DHT22;1243;54.298;10.172;2022-11-24T07:54:44;6.60;1.00
2463;DHT22;1243;54.298;10.172;2022-11-24T07:57:09;6.60;1.00
2463;DHT22;1243;54.298;10.172;2022-11-24T07:59:35;6.50;1.00
2463;DHT22;1243;54.298;10.172;2022-11-24T08:02:04;6.60;1.00
2463;DHT22;1243;54.298;10.172;2022-11-24T08:04:30;6.60;1.00
2463;DHT22;1243;54.298;10.172;2022-11-24T08:06:55;6.70;1.00
2463;DHT22;1243;54.298;10.172;2022-11-24T08:09:21;6.70;1.00
2463;DHT22;1243;54.298;10.172;2022-11-24T08:11:47;6.70;1.00
2463;DHT22;1243;54.298;10.172;2022-11-24T08:14:12;6.60;1.00
2463;DHT22;1243;54.298;10.172;2022-11-24T08:16:38;6.60;1.00
2463;DHT22;1243;54.298;10.172;2022-11-24T08:19:04;6.70;1.00
2463;DHT22;1243;54.298;10.172;2022-11-24T08:21:29;6.70;1.00
2463;DHT22;1243;54.298;10.172;2022-11-24T08:23:56;6.70;1.00
2463;DHT22;1243;54.298;10.172;2022-11-24T08:26:23;6.70;1.00
2463;DHT22;1243;54.298;10.172;2022-11-24T08:28:53;6.70;1.00
2463;DHT22;1243;54.298;10.172;2022-11-24T08:31:19;6.70;1.00
2463;DHT22;1243;54.298;10.172;2022-11-24T08:33:46;6.80;1.00
2463;DHT22;1243;54.298;10.172;2022-11-24T08:36:14;6.80;1.00
2463;DHT22;1243;54.298;10.172;2022-11-24T08:38:40;6.90;1.00
2463;DHT22;1243;54.298;10.172;2022-11-24T08:41:12;6.90;1.00
2463;DHT22;1243;54.298;10.172;2022-11-24T08:43:38;6.90;1.00
2463;DHT22;1243;54.298;10.172;2022-11-24T08:46:07;7.00;1.00
2463;DHT22;1243;54.298;10.172;2022-11-24T08:48:33;7.00;1.00
2463;DHT22;1243;54.298;10.172;2022-11-24T08:51:06;7.00;1.00
2463;DHT22;1243;54.298;10.172;2022-11-24T08:53:32;7.10;1.00
2463;DHT22;1243;54.298;10.172;2022-11-24T08:56:02;7.10;1.00
2463;DHT22;1243;54.298;10.172;2022-11-24T08:58:28;7.10;1.00
2463;DHT22;1243;54.298;10.172;2022-11-24T09:00:54;7.10;1.00
2463;DHT22;1243;54.298;10.172;2022-11-24T09:03:20;7.10;1.00
2463;DHT22;1243;54.298;10.172;2022-11-24T09:05:46;7.20;1.00
2463;DHT22;1243;54.298;10.172;2022-11-24T09:08:11;7.20;1.00
2463;DHT22;1243;54.298;10.172;2022-11-24T09:10:37;7.20;1.00
2463;DHT22;1243;54.298;10.172;2022-11-24T09:13:03;7.20;1.00
2463;DHT22;1243;54.298;10.172;2022-11-24T09:15:29;7.20;1.00
2463;DHT22;1243;54.298;10.172;2022-11-24T09:17:56;7.20;1.00
2463;DHT22;1243;54.298;10.172;2022-11-24T09:20:22;7.20;1.00
2463;DHT22;1243;54.298;10.172;2022-11-24T09:22:47;7.20;1.00
2463;DHT22;1243;54.298;10.172;2022-11-24T09:25:13;7.30;1.00
2463;DHT22;1243;54.298;10.172;2022-11-24T09:27:39;7.40;1.00
2463;DHT22;1243;54.298;10.172;2022-11-24T09:30:05;7.40;1.00
2463;DHT22;1243;54.298;10.172;2022-11-24T09:32:31;7.40;1.00
2463;DHT22;1243;54.298;10.172;2022-11-24T09:34:57;7.40;1.00
2463;DHT22;1243;54.298;10.172;2022-11-24T09:37:23;7.40;1.00
2463;DHT22;1243;54.298;10.172;2022-11-24T09:39:48;7.50;1.00
2463;DHT22;1243;54.298;10.172;2022-11-24T09:48:01;7.60;1.00
2463;DHT22;1243;54.298;10.172;2022-11-24T09:50:37;7.60;1.00
2463;DHT22;1243;54.298;10.172;2022-11-24T09:53:11;7.60;1.00
2463;DHT22;1243;54.298;10.172;2022-11-24T09:55:46;7.70;1.00
2463;DHT22;1243;54.298;10.172;2022-11-24T10:01:13;7.80;1.00
2463;DHT22;1243;54.298;10.172;2022-11-24T10:03:42;7.90;1.00
2463;DHT22;1243;54.298;10.172;2022-11-24T10:06:21;7.90;1.00
2463;DHT22;1243;54.298;10.172;2022-11-24T10:11:54;8.00;1.00
2463;DHT22;1243;54.298;10.172;2022-11-24T10:17:14;8.10;1.00
2463;DHT22;1243;54.298;10.172;2022-11-24T10:20:01;8.10;1.00
2463;DHT22;1243;54.298;10.172;2022-11-24T10:25:20;8.10;1.00
2463;DHT22;1243;54.298;10.172;2022-11-24T10:28:02;8.10;1.00
2463;DHT22;1243;54.298;10.172;2022-11-24T10:30:29;8.20;1.00
2463;DHT22;1243;54.298;10.172;2022-11-24T10:33:01;8.20;1.00
2463;DHT22;1243;54.298;10.172;2022-11-24T10:36:13;8.20;1.00
2463;DHT22;1243;54.298;10.172;2022-11-24T10:38:47;8.20;1.00
2463;DHT22;1243;54.298;10.172;2022-11-24T10:41:21;8.20;1.00
2463;DHT22;1243;54.298;10.172;2022-11-24T10:43:48;8.20;1.00
2463;DHT22;1243;54.298;10.172;2022-11-24T10:46:22;8.30;1.00
2463;DHT22;1243;54.298;10.172;2022-11-24T10:48:56;8.30;1.00
2463;DHT22;1243;54.298;10.172;2022-11-24T10:54:19;8.30;1.00
2463;DHT22;1243;54.298;10.172;2022-11-24T10:56:47;8.30;1.00
2463;DHT22;1243;54.298;10.172;2022-11-24T11:01:51;8.30;1.00
2463;DHT22;1243;54.298;10.172;2022-11-24T11:04:25;8.20;1.00
2463;DHT22;1243;54.298;10.172;2022-11-24T11:06:51;8.30;1.00
2463;DHT22;1243;54.298;10.172;2022-11-24T11:09:20;8.30;1.00
2463;DHT22;1243;54.298;10.172;2022-11-24T11:11:47;8.30;1.00
2463;DHT22;1243;54.298;10.172;2022-11-24T11:14:29;8.40;1.00
2463;DHT22;1243;54.298;10.172;2022-11-24T11:16:55;8.40;1.00
2463;DHT22;1243;54.298;10.172;2022-11-24T11:19:42;8.50;1.00
2463;DHT22;1243;54.298;10.172;2022-11-24T11:22:22;8.60;1.00
2463;DHT22;1243;54.298;10.172;2022-11-24T11:27:30;8.60;1.00
2463;DHT22;1243;54.298;10.172;2022-11-24T11:30:19;8.60;1.00
2463;DHT22;1243;54.298;10.172;2022-11-24T11:32:57;8.60;1.00
2463;DHT22;1243;54.298;10.172;2022-11-24T11:35:25;8.70;1.00
2463;DHT22;1243;54.298;10.172;2022-11-24T11:37:53;8.70;1.00
2463;DHT22;1243;54.298;10.172;2022-11-24T11:40:28;8.70;1.00
2463;DHT22;1243;54.298;10.172;2022-11-24T11:45:44;8.70;1.00
2463;DHT22;1243;54.298;10.172;2022-11-24T11:48:27;8.70;1.00
2463;DHT22;1243;54.298;10.172;2022-11-24T11:53:51;8.70;1.00
2463;DHT22;1243;54.298;10.172;2022-11-24T11:56:31;8.70;1.00
2463;DHT22;1243;54.298;10.172;2022-11-24T12:04:56;8.70;1.00
2463;DHT22;1243;54.298;10.172;2022-11-24T12:10:27;8.80;1.00
2463;DHT22;1243;54.298;10.172;2022-11-24T12:15:37;8.80;1.00
2463;DHT22;1243;54.298;10.172;2022-11-24T12:18:42;8.90;1.00
2463;DHT22;1243;54.298;10.172;2022-11-24T12:21:24;8.90;1.00
2463;DHT22;1243;54.298;10.172;2022-11-24T12:27:00;9.00;1.00
2463;DHT22;1243;54.298;10.172;2022-11-24T12:40:53;8.80;1.00
2463;DHT22;1243;54.298;10.172;2022-11-24T12:43:34;8.80;1.00
2463;DHT22;1243;54.298;10.172;2022-11-24T12:48:46;8.90;1.00
2463;DHT22;1243;54.298;10.172;2022-11-24T12:51:18;8.90;1.00
2463;DHT22;1243;54.298;10.172;2022-11-24T12:53:45;8.90;1.00
2463;DHT22;1243;54.298;10.172;2022-11-24T12:56:13;9.00;1.00
2463;DHT22;1243;54.298;10.172;2022-11-24T12:58:49;8.90;1.00
2463;DHT22;1243;54.298;10.172;2022-11-24T13:01:37;8.90;1.00
2463;DHT22;1243;54.298;10.172;2022-11-24T13:15:29;9.00;1.00
2463;DHT22;1243;54.298;10.172;2022-11-24T13:17:55;9.00;1.00
2463;DHT22;1243;54.298;10.172;2022-11-24T13:20:34;9.00;1.00
2463;DHT22;1243;54.298;10.172;2022-11-24T13:23:03;9.00;1.00
2463;DHT22;1243;54.298;10.172;2022-11-24T13:25:34;9.00;1.00
2463;DHT22;1243;54.298;10.172;2022-11-24T13:28:01;9.10;1.00
2463;DHT22;1243;54.298;10.172;2022-11-24T13:36:27;9.00;1.00
2463;DHT22;1243;54.298;10.172;2022-11-24T13:49:23;9.00;1.00
2463;DHT22;1243;54.298;10.172;2022-11-24T13:51:54;9.00;1.00
2463;DHT22;1243;54.298;10.172;2022-11-24T13:54:23;8.90;1.00
2463;DHT22;1243;54.298;10.172;2022-11-24T13:56:51;8.90;1.00
2463;DHT22;1243;54.298;10.172;2022-11-24T13:59:25;8.90;1.00
2463;DHT22;1243;54.298;10.172;2022-11-24T14:01:56;8.90;1.00
2463;DHT22;1243;54.298;10.172;2022-11-24T14:04:24;8.90;1.00
2463;DHT22;1243;54.298;10.172;2022-11-24T14:09:34;9.00;1.00
2463;DHT22;1243;54.298;10.172;2022-11-24T14:12:14;8.90;1.00
2463;DHT22;1243;54.298;10.172;2022-11-24T14:14:42;8.90;1.00
2463;DHT22;1243;54.298;10.172;2022-11-24T14:17:17;8.80;1.00
2463;DHT22;1243;54.298;10.172;2022-11-24T14:19:48;8.80;1.00
2463;DHT22;1243;54.298;10.172;2022-11-24T14:22:40;8.80;1.00
2463;DHT22;1243;54.298;10.172;2022-11-24T14:25:25;8.80;99.90
2463;DHT22;1243;54.298;10.172;2022-11-24T14:27:52;8.80;99.90
2463;DHT22;1243;54.298;10.172;2022-11-24T14:30:20;8.80;99.90
2463;DHT22;1243;54.298;10.172;2022-11-24T14:33:01;8.80;99.90
2463;DHT22;1243;54.298;10.172;2022-11-24T14:35:32;8.80;99.90
2463;DHT22;1243;54.298;10.172;2022-11-24T14:38:00;8.70;99.90
2463;DHT22;1243;54.298;10.172;2022-11-24T14:40:50;8.70;99.90
2463;DHT22;1243;54.298;10.172;2022-11-24T14:43:30;8.80;99.90
2463;DHT22;1243;54.298;10.172;2022-11-24T14:48:35;8.80;99.90
2463;DHT22;1243;54.298;10.172;2022-11-24T14:51:14;8.80;99.90
2463;DHT22;1243;54.298;10.172;2022-11-24T14:53:44;8.90;99.90
2463;DHT22;1243;54.298;10.172;2022-11-24T14:56:33;8.90;99.90
2463;DHT22;1243;54.298;10.172;2022-11-24T14:59:00;8.90;99.90
2463;DHT22;1243;54.298;10.172;2022-11-24T15:04:15;8.90;99.90
2463;DHT22;1243;54.298;10.172;2022-11-24T15:06:47;8.90;99.90
2463;DHT22;1243;54.298;10.172;2022-11-24T15:11:50;8.90;99.90
2463;DHT22;1243;54.298;10.172;2022-11-24T15:16:54;8.90;99.90
2463;DHT22;1243;54.298;10.172;2022-11-24T15:19:23;8.90;99.90
2463;DHT22;1243;54.298;10.172;2022-11-24T15:21:51;8.90;99.90
2463;DHT22;1243;54.298;10.172;2022-11-24T15:24:18;8.90;99.90
2463;DHT22;1243;54.298;10.172;2022-11-24T15:26:44;8.80;99.90
2463;DHT22;1243;54.298;10.172;2022-11-24T15:29:11;8.80;99.90
2463;DHT22;1243;54.298;10.172;2022-11-24T15:31:40;8.80;99.90
2463;DHT22;1243;54.298;10.172;2022-11-24T15:34:08;8.90;99.90
2463;DHT22;1243;54.298;10.172;2022-11-24T15:36:37;8.90;99.90
2463;DHT22;1243;54.298;10.172;2022-11-24T15:39:02;8.90;99.90
2463;DHT22;1243;54.298;10.172;2022-11-24T15:41:30;8.80;99.90
2463;DHT22;1243;54.298;10.172;2022-11-24T15:43:56;8.90;99.90
2463;DHT22;1243;54.298;10.172;2022-11-24T15:46:29;8.80;99.90
2463;DHT22;1243;54.298;10.172;2022-11-24T15:48:55;8.90;99.90
2463;DHT22;1243;54.298;10.172;2022-11-24T15:51:24;8.90;99.90
2463;DHT22;1243;54.298;10.172;2022-11-24T15:53:52;8.90;99.90
2463;DHT22;1243;54.298;10.172;2022-11-24T15:58:47;8.90;99.90
2463;DHT22;1243;54.298;10.172;2022-11-24T16:01:13;8.90;99.90
2463;DHT22;1243;54.298;10.172;2022-11-24T16:03:38;8.80;99.90
2463;DHT22;1243;54.298;10.172;2022-11-24T16:06:04;8.80;99.90
2463;DHT22;1243;54.298;10.172;2022-11-24T16:08:31;8.70;99.90
2463;DHT22;1243;54.298;10.172;2022-11-24T16:10:56;8.60;99.90
2463;DHT22;1243;54.298;10.172;2022-11-24T16:13:22;8.40;99.90
2463;DHT22;1243;54.298;10.172;2022-11-24T16:15:48;8.30;99.90
2463;DHT22;1243;54.298;10.172;2022-11-24T16:18:13;8.30;99.90
2463;DHT22;1243;54.298;10.172;2022-11-24T16:20:40;8.20;99.90
2463;DHT22;1243;54.298;10.172;2022-11-24T16:23:05;8.10;99.90
2463;DHT22;1243;54.298;10.172;2022-11-24T16:25:32;8.00;99.90
2463;DHT22;1243;54.298;10.172;2022-11-24T16:27:58;7.90;99.90
2463;DHT22;1243;54.298;10.172;2022-11-24T16:30:23;7.80;99.90
2463;DHT22;1243;54.298;10.172;2022-11-24T16:32:49;7.70;99.90
2463;DHT22;1243;54.298;10.172;2022-11-24T16:35:15;7.70;99.90
2463;DHT22;1243;54.298;10.172;2022-11-24T16:37:41;7.60;99.90
2463;DHT22;1243;54.298;10.172;2022-11-24T16:40:07;7.60;99.90
2463;DHT22;1243;54.298;10.172;2022-11-24T16:42:33;7.60;99.90
2463;DHT22;1243;54.298;10.172;2022-11-24T16:44:58;7.60;99.90
2463;DHT22;1243;54.298;10.172;2022-11-24T16:47:24;7.70;99.90
2463;DHT22;1243;54.298;10.172;2022-11-24T16:49:50;7.70;99.90
2463;DHT22;1243;54.298;10.172;2022-11-24T16:52:16;7.80;99.90
2463;DHT22;1243;54.298;10.172;2022-11-24T16:54:46;7.80;99.90
2463;DHT22;1243;54.298;10.172;2022-11-24T16:57:15;7.90;99.90
2463;DHT22;1243;54.298;10.172;2022-11-24T16:59:41;7.90;99.90
2463;DHT22;1243;54.298;10.172;2022-11-24T17:02:13;8.00;99.90
2463;DHT22;1243;54.298;10.172;2022-11-24T17:04:39;8.00;99.90
2463;DHT22;1243;54.298;10.172;2022-11-24T17:07:05;8.10;99.90
2463;DHT22;1243;54.298;10.172;2022-11-24T17:09:32;8.10;99.90
2463;DHT22;1243;54.298;10.172;2022-11-24T17:11:58;8.10;99.90
2463;DHT22;1243;54.298;10.172;2022-11-24T17:14:23;8.10;99.90
2463;DHT22;1243;54.298;10.172;2022-11-24T17:16:49;8.20;99.90
2463;DHT22;1243;54.298;10.172;2022-11-24T17:19:15;8.20;99.90
2463;DHT22;1243;54.298;10.172;2022-11-24T17:21:41;8.20;99.90
2463;DHT22;1243;54.298;10.172;2022-11-24T17:24:07;8.30;1.00
2463;DHT22;1243;54.298;10.172;2022-11-24T17:26:36;8.30;1.00
2463;DHT22;1243;54.298;10.172;2022-11-24T17:29:01;8.40;1.00
2463;DHT22;1243;54.298;10.172;2022-11-24T17:31:32;8.40;1.00
2463;DHT22;1243;54.298;10.172;2022-11-24T17:34:00;8.30;1.00
2463;DHT22;1243;54.298;10.172;2022-11-24T17:36:28;8.30;1.00
2463;DHT22;1243;54.298;10.172;2022-11-24T17:38:54;8.30;1.00
2463;DHT22;1243;54.298;10.172;2022-11-24T17:41:21;8.30;1.00
2463;DHT22;1243;54.298;10.172;2022-11-24T17:43:49;8.30;1.00
2463;DHT22;1243;54.298;10.172;2022-11-24T17:46:15;8.30;1.00
2463;DHT22;1243;54.298;10.172;2022-11-24T17:48:41;8.30;1.00
2463;DHT22;1243;54.298;10.172;2022-11-24T17:51:11;8.30;1.00
2463;DHT22;1243;54.298;10.172;2022-11-24T17:53:41;8.40;1.00
2463;DHT22;1243;54.298;10.172;2022-11-24T17:56:10;8.40;1.00
2463;DHT22;1243;54.298;10.172;2022-11-24T17:58:36;8.40;1.00
2463;DHT22;1243;54.298;10.172;2022-11-24T18:01:03;8.40;1.00
2463;DHT22;1243;54.298;10.172;2022-11-24T18:03:29;8.40;1.00
2463;DHT22;1243;54.298;10.172;2022-11-24T18:06:03;8.40;1.00
2463;DHT22;1243;54.298;10.172;2022-11-24T18:08:37;8.40;1.00
2463;DHT22;1243;54.298;10.172;2022-11-24T18:11:26;8.50;1.00